createdAt,value
2023-09-15T00:01:34.257Z,11.02
2023-09-15T00:04:04.343Z,11.10
2023-09-15T00:06:32.166Z,11.18
2023-09-15T00:09:01.342Z,11.21
2023-09-15T00:11:40.839Z,11.12
2023-09-15T00:14:12.035Z,11.02
2023-09-15T00:16:40.776Z,11.06
2023-09-15T00:19:14.689Z,10.99
2023-09-15T00:21:42.434Z,10.89
2023-09-15T00:24:11.841Z,10.93
2023-09-15T00:26:40.050Z,10.96
2023-09-15T00:29:09.226Z,10.82
2023-09-15T00:31:37.381Z,10.75
2023-09-15T00:34:05.643Z,10.76
2023-09-15T00:36:33.874Z,10.71
2023-09-15T00:39:02.310Z,10.62
2023-09-15T00:41:31.591Z,10.54
2023-09-15T00:43:59.547Z,10.43
2023-09-15T00:46:27.302Z,10.32
2023-09-15T00:48:56.898Z,10.30
2023-09-15T00:51:24.670Z,10.31
2023-09-15T00:53:52.391Z,10.34
2023-09-15T00:56:20.485Z,10.33
2023-09-15T00:58:49.730Z,10.28
2023-09-15T01:01:17.912Z,10.21
2023-09-15T01:03:47.391Z,10.18
2023-09-15T01:06:15.750Z,10.20
2023-09-15T01:08:43.600Z,10.24
2023-09-15T01:11:11.870Z,10.11
2023-09-15T01:13:39.706Z,10.15
2023-09-15T01:16:12.446Z,10.12
2023-09-15T01:18:44.775Z,10.17
2023-09-15T01:21:21.780Z,10.14
2023-09-15T01:24:22.011Z,9.99
2023-09-15T01:27:02.645Z,10.04
2023-09-15T01:29:40.601Z,9.94
2023-09-15T01:32:09.380Z,9.99
2023-09-15T01:34:37.963Z,10.03
2023-09-15T01:37:06.150Z,10.01
2023-09-15T01:39:34.529Z,9.99
2023-09-15T01:42:02.218Z,9.99
2023-09-15T01:44:29.876Z,10.01
2023-09-15T01:46:58.838Z,9.85
2023-09-15T01:49:26.970Z,9.87
2023-09-15T01:51:55.735Z,9.83
2023-09-15T01:54:23.747Z,9.91
2023-09-15T01:56:51.365Z,9.89
2023-09-15T01:59:19.022Z,9.88
2023-09-15T02:01:46.899Z,9.88
2023-09-15T02:04:15.973Z,9.88
2023-09-15T02:06:43.735Z,9.94
2023-09-15T02:09:11.411Z,9.91
2023-09-15T02:11:39.106Z,9.85
2023-09-15T02:14:06.942Z,9.71
2023-09-15T02:16:34.649Z,9.77
2023-09-15T02:19:02.509Z,9.78
2023-09-15T02:21:31.867Z,9.70
2023-09-15T02:24:00.587Z,9.65
2023-09-15T02:26:28.193Z,9.62
2023-09-15T02:28:55.810Z,9.62
2023-09-15T02:31:23.592Z,9.60
2023-09-15T02:33:51.438Z,9.50
2023-09-15T02:36:19.101Z,9.46
2023-09-15T02:38:48.275Z,9.45
2023-09-15T02:41:16.120Z,9.46
2023-09-15T02:43:43.897Z,9.48
2023-09-15T02:46:11.686Z,9.46
2023-09-15T02:48:39.378Z,9.39
2023-09-15T02:51:07.027Z,9.26
2023-09-15T02:53:34.724Z,9.25
2023-09-15T02:56:05.960Z,9.25
2023-09-15T02:58:37.306Z,9.25
2023-09-15T03:01:13.619Z,9.29
2023-09-15T03:03:43.969Z,9.34
2023-09-15T03:06:12.764Z,9.42
2023-09-15T03:08:40.404Z,9.46
2023-09-15T03:11:15.798Z,9.40
2023-09-15T03:13:43.474Z,9.41
2023-09-15T03:16:13.047Z,9.40
2023-09-15T03:18:43.830Z,9.41
2023-09-15T03:21:12.095Z,9.48
2023-09-15T03:23:39.956Z,9.44
2023-09-15T03:26:07.742Z,9.22
2023-09-15T03:28:40.269Z,9.30
2023-09-15T03:31:09.350Z,9.25
2023-09-15T03:33:38.574Z,9.23
2023-09-15T03:36:07.877Z,9.37
2023-09-15T03:38:35.579Z,9.39
2023-09-15T03:41:03.826Z,9.37
2023-09-15T03:43:34.235Z,9.39
2023-09-15T03:46:04.507Z,9.32
2023-09-15T03:48:33.684Z,9.24
2023-09-15T03:51:01.590Z,9.20
2023-09-15T03:53:29.303Z,9.19
2023-09-15T03:55:56.945Z,9.06
2023-09-15T03:58:24.946Z,9.18
2023-09-15T04:00:52.642Z,9.36
2023-09-15T04:03:22.364Z,9.17
2023-09-15T04:05:50.404Z,8.83
2023-09-15T04:08:18.165Z,9.07
2023-09-15T04:10:45.828Z,9.22
2023-09-15T04:13:13.523Z,9.31
2023-09-15T04:15:41.208Z,9.10
2023-09-15T04:18:10.142Z,8.89
2023-09-15T04:20:46.094Z,8.91
2023-09-15T04:23:15.886Z,8.78
2023-09-15T04:25:44.324Z,8.86
2023-09-15T04:28:14.124Z,9.08
2023-09-15T04:30:44.239Z,9.18
2023-09-15T04:33:13.750Z,9.10
2023-09-15T04:35:42.771Z,9.22
2023-09-15T04:38:10.457Z,9.11
2023-09-15T04:40:38.119Z,8.94
2023-09-15T04:43:07.006Z,8.87
2023-09-15T04:45:35.887Z,8.98
2023-09-15T04:48:06.305Z,9.22
2023-09-15T04:50:37.924Z,9.28
2023-09-15T04:53:08.476Z,9.01
2023-09-15T04:55:36.758Z,8.94
2023-09-15T04:58:05.851Z,9.04
2023-09-15T05:00:36.405Z,9.29
2023-09-15T05:03:05.701Z,9.20
2023-09-15T05:05:33.431Z,9.18
2023-09-15T05:08:01.072Z,9.18
2023-09-15T05:10:31.218Z,9.30
2023-09-15T05:12:59.974Z,9.20
2023-09-15T05:15:28.642Z,9.11
2023-09-15T05:17:56.433Z,9.11
2023-09-15T05:20:24.256Z,9.12
2023-09-15T05:22:52.226Z,9.04
2023-09-15T05:25:19.906Z,8.96
2023-09-15T05:27:49.015Z,8.93
2023-09-15T05:30:17.204Z,8.89
2023-09-15T05:32:44.997Z,8.87
2023-09-15T05:35:13.145Z,8.89
2023-09-15T05:37:40.956Z,8.91
2023-09-15T05:40:10.670Z,8.96
2023-09-15T05:42:38.637Z,8.98
2023-09-15T05:45:09.228Z,9.02
2023-09-15T05:47:36.995Z,8.97
2023-09-15T05:50:05.823Z,8.91
2023-09-15T05:52:33.905Z,8.94
2023-09-15T05:55:01.728Z,9.01
2023-09-15T05:57:29.415Z,8.89
2023-09-15T05:59:57.013Z,8.96
2023-09-15T06:02:26.015Z,8.95
2023-09-15T06:04:54.660Z,8.91
2023-09-15T06:07:22.718Z,9.00
2023-09-15T06:09:50.487Z,9.11
2023-09-15T06:12:18.086Z,9.24
2023-09-15T06:14:46.581Z,9.41
2023-09-15T06:17:14.593Z,9.55
2023-09-15T06:19:43.569Z,9.66
2023-09-15T06:22:11.212Z,9.70
2023-09-15T06:24:38.843Z,9.63
2023-09-15T06:27:06.683Z,9.72
2023-09-15T06:29:34.912Z,9.79
2023-09-15T06:32:02.743Z,9.86
2023-09-15T06:34:30.460Z,9.87
2023-09-15T06:36:59.548Z,10.01
2023-09-15T06:39:27.892Z,10.17
2023-09-15T06:41:55.939Z,10.28
2023-09-15T06:44:24.627Z,10.32
2023-09-15T06:46:52.319Z,10.43
2023-09-15T06:49:22.897Z,10.46
2023-09-15T06:51:50.889Z,10.50
2023-09-15T06:54:19.812Z,10.51
2023-09-15T06:56:47.547Z,10.58
2023-09-15T06:59:15.255Z,10.68
2023-09-15T07:01:43.119Z,10.70
2023-09-15T07:04:14.345Z,10.75
2023-09-15T07:06:42.685Z,10.77
2023-09-15T07:09:10.330Z,10.86
2023-09-15T07:11:39.370Z,10.94
2023-09-15T07:14:06.957Z,11.08
2023-09-15T07:16:35.463Z,11.30
2023-09-15T07:19:03.383Z,11.37
2023-09-15T07:21:31.046Z,11.53
2023-09-15T07:24:00.451Z,11.62
2023-09-15T07:26:29.671Z,11.72
2023-09-15T07:28:58.731Z,11.83
2023-09-15T07:31:28.949Z,11.87
2023-09-15T07:33:56.708Z,11.96
2023-09-15T07:36:24.315Z,12.10
2023-09-15T07:38:51.970Z,12.21
2023-09-15T07:41:19.590Z,12.29
2023-09-15T07:43:47.773Z,12.40
2023-09-15T07:46:17.241Z,12.53
2023-09-15T07:48:45.510Z,12.57
2023-09-15T07:51:14.990Z,12.64
2023-09-15T07:53:42.728Z,12.80
2023-09-15T07:56:10.392Z,12.89
2023-09-15T07:58:38.063Z,13.02
2023-09-15T08:01:07.114Z,13.11
2023-09-15T08:03:36.494Z,13.15
2023-09-15T08:06:04.595Z,13.27
2023-09-15T08:08:32.271Z,13.39
2023-09-15T08:11:00.390Z,13.47
2023-09-15T08:13:28.271Z,13.59
2023-09-15T08:15:56.108Z,13.70
2023-09-15T08:18:24.568Z,13.83
2023-09-15T08:20:53.927Z,13.99
2023-09-15T08:23:21.704Z,14.10
2023-09-15T08:25:49.513Z,14.22
2023-09-15T08:28:18.491Z,14.33
2023-09-15T08:30:47.837Z,14.45
2023-09-15T08:33:15.733Z,14.57
2023-09-15T08:35:44.850Z,14.67
2023-09-15T08:38:15.097Z,14.79
2023-09-15T08:40:49.077Z,14.90
2023-09-15T08:43:17.266Z,15.02
2023-09-15T08:45:47.053Z,15.18
2023-09-15T08:48:19.641Z,15.34
2023-09-15T08:50:48.032Z,15.50
2023-09-15T08:53:17.216Z,15.63
2023-09-15T08:55:44.970Z,15.76
2023-09-15T08:58:13.820Z,15.92
2023-09-15T09:00:41.467Z,16.12
2023-09-15T09:03:08.470Z,16.29
2023-09-15T09:05:37.375Z,16.44
2023-09-15T09:08:05.864Z,16.57
2023-09-15T09:10:35.070Z,16.70
2023-09-15T09:13:03.139Z,16.80
2023-09-15T09:15:34.259Z,16.91
2023-09-15T09:18:02.282Z,16.98
2023-09-15T09:20:30.286Z,17.07
2023-09-15T09:22:57.967Z,17.15
2023-09-15T09:25:30.199Z,17.19
2023-09-15T09:27:59.198Z,17.26
2023-09-15T09:30:30.243Z,17.32
2023-09-15T09:32:58.362Z,17.38
2023-09-15T09:35:26.809Z,17.44
2023-09-15T09:37:55.103Z,17.49
2023-09-15T09:40:23.534Z,17.56
2023-09-15T09:42:51.455Z,17.66
2023-09-15T09:45:26.677Z,17.76
2023-09-15T09:47:54.850Z,17.84
2023-09-15T09:50:22.775Z,17.97
2023-09-15T09:52:52.257Z,18.11
2023-09-15T09:55:19.936Z,18.20
2023-09-15T09:57:47.874Z,18.20
2023-09-15T10:00:19.996Z,18.26
2023-09-15T10:02:50.356Z,18.39
2023-09-15T10:05:19.085Z,18.56
2023-09-15T10:07:48.185Z,18.73
2023-09-15T10:10:16.068Z,18.77
2023-09-15T10:12:44.073Z,18.85
2023-09-15T10:15:12.486Z,19.00
2023-09-15T10:17:40.382Z,19.17
2023-09-15T10:20:10.630Z,19.32
2023-09-15T10:22:39.436Z,19.54
2023-09-15T10:25:08.669Z,19.65
2023-09-15T10:27:36.318Z,19.67
2023-09-15T10:30:05.841Z,19.71
2023-09-15T10:32:37.121Z,19.98
2023-09-15T10:35:07.014Z,20.23
2023-09-15T10:37:37.873Z,20.77
2023-09-15T10:40:06.424Z,21.08
2023-09-15T10:42:36.058Z,21.09
2023-09-15T10:45:11.457Z,21.08
2023-09-15T10:47:39.244Z,21.17
2023-09-15T10:50:08.850Z,21.56
2023-09-15T10:52:39.244Z,21.80
2023-09-15T10:55:08.217Z,22.06
2023-09-15T10:57:37.157Z,22.28
2023-09-15T11:00:09.362Z,22.48
2023-09-15T11:02:37.594Z,22.58
2023-09-15T11:05:06.626Z,22.76
2023-09-15T11:07:36.051Z,23.02
2023-09-15T11:10:07.406Z,23.10
2023-09-15T11:12:37.879Z,23.16
2023-09-15T11:15:06.771Z,23.41
2023-09-15T11:17:34.824Z,23.54
2023-09-15T11:20:06.833Z,23.54
2023-09-15T11:22:35.128Z,23.76
2023-09-15T11:25:16.511Z,23.97
2023-09-15T11:27:48.434Z,24.10
2023-09-15T11:30:16.273Z,24.10
2023-09-15T11:32:44.111Z,24.34
2023-09-15T11:35:13.392Z,24.33
2023-09-15T11:37:42.168Z,24.29
2023-09-15T11:40:10.816Z,24.50
2023-09-15T11:42:38.487Z,24.79
2023-09-15T11:45:08.933Z,24.83
2023-09-15T11:47:36.735Z,24.99
2023-09-15T11:50:06.946Z,24.98
2023-09-15T11:52:35.212Z,24.60
2023-09-15T11:55:02.889Z,24.17
2023-09-15T11:57:30.574Z,24.07
2023-09-15T11:59:58.221Z,24.25
2023-09-15T12:02:27.249Z,24.83
2023-09-15T12:04:55.035Z,25.01
2023-09-15T12:07:24.512Z,25.11
2023-09-15T12:09:53.797Z,25.11
2023-09-15T12:12:21.618Z,25.06
2023-09-15T12:14:49.411Z,25.13
2023-09-15T12:17:17.148Z,25.20
2023-09-15T12:19:46.248Z,25.27
2023-09-15T12:22:13.865Z,25.20
2023-09-15T12:24:42.632Z,25.19
2023-09-15T12:27:10.480Z,25.21
2023-09-15T12:29:38.594Z,25.27
2023-09-15T12:32:06.437Z,25.04
2023-09-15T12:34:34.936Z,25.11
2023-09-15T12:37:08.920Z,25.17
2023-09-15T12:39:36.628Z,24.83
2023-09-15T12:44:37.232Z,24.34
2023-09-15T12:47:06.574Z,24.11
2023-09-15T12:49:34.381Z,24.20
2023-09-15T12:52:02.880Z,24.59
2023-09-15T12:54:31.922Z,24.85
2023-09-15T12:56:59.636Z,24.86
2023-09-15T12:59:28.210Z,24.79
2023-09-15T13:01:58.023Z,24.64
2023-09-15T13:04:26.689Z,24.51
2023-09-15T13:06:55.590Z,24.40
2023-09-15T13:09:24.442Z,24.32
2023-09-15T13:11:53.463Z,24.15
2023-09-15T13:14:21.226Z,24.17
2023-09-15T13:16:49.244Z,24.17
2023-09-15T13:19:18.172Z,24.22
2023-09-15T13:21:46.260Z,24.16
2023-09-15T13:24:14.455Z,24.12
2023-09-15T13:26:42.855Z,24.07
2023-09-15T13:29:12.106Z,23.89
2023-09-15T13:31:39.749Z,23.88
2023-09-15T13:34:07.427Z,23.85
2023-09-15T13:36:35.077Z,23.83
2023-09-15T13:39:03.134Z,23.79
2023-09-15T13:41:30.841Z,23.87
2023-09-15T13:43:58.426Z,23.89
2023-09-15T13:46:27.418Z,23.84
2023-09-15T13:48:55.130Z,23.85
2023-09-15T13:51:32.325Z,23.91
2023-09-15T13:54:08.161Z,24.01
2023-09-15T13:56:35.807Z,24.02
2023-09-15T13:59:04.538Z,23.98
2023-09-15T14:01:34.363Z,23.94
2023-09-15T14:04:02.199Z,23.89
2023-09-15T14:06:29.943Z,23.71
2023-09-15T14:08:57.602Z,23.75
2023-09-15T14:11:26.237Z,23.94
2023-09-15T14:13:54.396Z,24.02
2023-09-15T14:16:22.208Z,24.23
2023-09-15T14:18:51.447Z,24.28
2023-09-15T14:21:19.552Z,24.43
2023-09-15T14:23:47.185Z,24.52
2023-09-15T14:26:14.835Z,24.33
2023-09-15T14:28:42.462Z,24.41
2023-09-15T14:31:10.182Z,24.24
2023-09-15T14:33:37.885Z,24.21
2023-09-15T14:36:07.048Z,23.99
2023-09-15T14:38:34.740Z,23.97
2023-09-15T14:41:02.537Z,24.12
2023-09-15T14:43:30.264Z,24.16
2023-09-15T14:45:58.151Z,24.30
2023-09-15T14:48:26.029Z,24.33
2023-09-15T14:50:54.946Z,24.22
2023-09-15T14:53:24.074Z,24.28
2023-09-15T14:55:51.798Z,24.32
2023-09-15T14:58:19.818Z,24.23
2023-09-15T15:00:47.700Z,23.72
2023-09-15T15:03:15.497Z,23.59
2023-09-15T15:05:43.254Z,23.56
2023-09-15T15:08:10.986Z,23.62
2023-09-15T15:10:40.291Z,23.72
2023-09-15T15:13:08.027Z,23.84
2023-09-15T15:15:43.649Z,23.76
2023-09-15T15:18:11.686Z,23.77
2023-09-15T15:20:39.394Z,23.73
2023-09-15T15:23:07.060Z,23.66
2023-09-15T15:25:34.645Z,23.36
2023-09-15T15:28:03.725Z,23.01
2023-09-15T15:30:32.160Z,22.99
2023-09-15T15:32:59.894Z,23.07
2023-09-15T15:35:28.436Z,23.15
2023-09-15T15:37:59.941Z,23.21
2023-09-15T15:40:27.587Z,23.08
2023-09-15T15:42:55.315Z,22.84
2023-09-15T15:45:24.316Z,22.81
2023-09-15T15:47:51.945Z,22.85
2023-09-15T15:50:19.754Z,22.62
2023-09-15T15:52:47.723Z,22.58
2023-09-15T15:55:15.859Z,22.66
2023-09-15T15:57:43.552Z,22.68
2023-09-15T16:00:12.374Z,22.72
2023-09-15T16:02:41.539Z,22.59
2023-09-15T16:05:09.702Z,22.51
2023-09-15T16:07:37.461Z,22.46
2023-09-15T16:10:06.626Z,22.34
2023-09-15T16:12:34.440Z,22.37
2023-09-15T16:15:02.943Z,22.30
2023-09-15T16:17:30.805Z,22.17
2023-09-15T16:20:02.699Z,22.09
2023-09-15T16:22:30.887Z,22.11
2023-09-15T16:24:58.579Z,22.17
2023-09-15T16:27:26.358Z,22.11
2023-09-15T16:29:54.761Z,21.97
2023-09-15T16:32:22.341Z,21.83
2023-09-15T16:34:50.417Z,21.77
2023-09-15T16:37:19.402Z,21.74
2023-09-15T16:39:47.046Z,21.73
2023-09-15T16:42:14.794Z,21.69
2023-09-15T16:44:42.516Z,21.62
2023-09-15T16:47:13.379Z,21.61
2023-09-15T16:49:40.991Z,21.60
2023-09-15T16:52:08.815Z,21.60
2023-09-15T16:54:37.829Z,21.58
2023-09-15T16:57:05.942Z,21.55
2023-09-15T16:59:35.442Z,21.50
2023-09-15T17:02:04.332Z,21.46
2023-09-15T17:04:32.034Z,21.40
2023-09-15T17:06:59.731Z,21.37
2023-09-15T17:09:27.395Z,21.32
2023-09-15T17:11:56.340Z,21.23
2023-09-15T17:14:24.078Z,21.15
2023-09-15T17:16:51.726Z,21.08
2023-09-15T17:19:19.731Z,21.11
2023-09-15T17:21:48.958Z,21.04
2023-09-15T17:24:16.867Z,21.00
2023-09-15T17:26:45.191Z,20.92
2023-09-15T17:29:15.587Z,20.85
2023-09-15T17:31:43.370Z,20.82
2023-09-15T17:34:11.899Z,20.76
2023-09-15T17:36:40.159Z,20.69
2023-09-15T17:39:07.792Z,20.64
2023-09-15T17:41:35.655Z,20.59
2023-09-15T17:44:04.007Z,20.54
2023-09-15T17:46:32.992Z,20.47
2023-09-15T17:49:00.865Z,20.42
2023-09-15T17:51:29.896Z,20.37
2023-09-15T17:53:57.769Z,20.33
2023-09-15T17:56:25.425Z,20.28
2023-09-15T17:58:53.070Z,20.22
2023-09-15T18:01:20.714Z,20.17
2023-09-15T18:03:49.715Z,20.10
2023-09-15T18:06:19.264Z,20.03
2023-09-15T18:08:48.067Z,19.95
2023-09-15T18:11:16.339Z,19.90
2023-09-15T18:13:44.467Z,19.85
2023-09-15T18:16:12.295Z,19.77
2023-09-15T18:18:41.183Z,19.68
2023-09-15T18:21:10.983Z,19.53
2023-09-15T18:23:38.592Z,19.38
2023-09-15T18:26:06.615Z,19.36
2023-09-15T18:28:34.534Z,19.36
2023-09-15T18:31:02.256Z,19.34
2023-09-15T18:33:30.442Z,19.32
2023-09-15T18:35:59.900Z,19.29
2023-09-15T18:38:29.181Z,19.21
2023-09-15T18:40:56.787Z,19.16
2023-09-15T18:43:24.924Z,19.12
2023-09-15T18:45:53.531Z,19.07
2023-09-15T18:48:21.566Z,18.92
2023-09-15T18:50:49.237Z,18.86
2023-09-15T18:53:19.621Z,18.86
2023-09-15T18:55:48.657Z,18.83
2023-09-15T18:58:16.306Z,18.81
2023-09-15T19:00:43.953Z,18.77
2023-09-15T19:03:12.145Z,18.68
2023-09-15T19:05:40.167Z,18.63
2023-09-15T19:08:08.020Z,18.50
2023-09-15T19:10:35.651Z,18.47
2023-09-15T19:13:04.985Z,18.60
2023-09-15T19:15:37.101Z,18.64
2023-09-15T19:18:05.483Z,18.59
2023-09-15T19:20:35.824Z,18.39
2023-09-15T19:23:06.543Z,18.30
2023-09-15T19:25:34.226Z,18.13
2023-09-15T19:28:04.062Z,17.84
2023-09-15T19:30:35.464Z,17.68
2023-09-15T19:33:03.289Z,17.49
2023-09-15T19:35:30.983Z,17.66
2023-09-15T19:37:58.700Z,17.56
2023-09-15T19:40:26.332Z,17.46
2023-09-15T19:42:53.990Z,17.40
2023-09-15T19:45:21.734Z,17.45
2023-09-15T19:47:51.012Z,17.10
2023-09-15T19:50:20.234Z,17.17
2023-09-15T19:52:47.831Z,17.15
2023-09-15T19:55:15.718Z,17.19
2023-09-15T19:57:50.061Z,16.98
2023-09-15T20:00:19.369Z,16.78
2023-09-15T20:02:47.246Z,16.54
2023-09-15T20:05:16.498Z,16.49
2023-09-15T20:07:44.674Z,16.44
2023-09-15T20:10:13.065Z,16.48
2023-09-15T20:12:41.299Z,16.26
2023-09-15T20:15:10.931Z,16.30
2023-09-15T20:17:39.973Z,16.31
2023-09-15T20:20:09.164Z,16.15
2023-09-15T20:22:38.325Z,16.11
2023-09-15T20:25:06.628Z,15.92
2023-09-15T20:27:35.284Z,15.76
2023-09-15T20:30:03.906Z,15.63
2023-09-15T20:32:31.570Z,15.67
2023-09-15T20:34:59.940Z,15.44
2023-09-15T20:37:27.796Z,15.49
2023-09-15T20:39:56.927Z,15.45
2023-09-15T20:42:25.759Z,15.35
2023-09-15T20:44:53.630Z,15.59
2023-09-15T20:47:21.385Z,15.55
2023-09-15T20:49:49.499Z,15.63
2023-09-15T20:52:17.373Z,15.49
2023-09-15T20:54:45.482Z,15.54
2023-09-15T20:57:14.539Z,15.39
2023-09-15T20:59:42.265Z,15.38
2023-09-15T21:02:09.955Z,15.20
2023-09-15T21:04:37.825Z,15.12
2023-09-15T21:07:05.926Z,14.92
2023-09-15T21:09:34.062Z,14.94
2023-09-15T21:12:02.092Z,14.90
2023-09-15T21:14:31.752Z,14.93
2023-09-15T21:16:59.441Z,15.01
2023-09-15T21:19:27.088Z,15.02
2023-09-15T21:21:54.870Z,14.94
2023-09-15T21:24:22.696Z,14.77
2023-09-15T21:26:50.469Z,14.77
2023-09-15T21:29:18.208Z,14.86
2023-09-15T21:31:47.340Z,14.71
2023-09-15T21:34:15.040Z,14.68
2023-09-15T21:36:42.788Z,14.68
2023-09-15T21:39:10.999Z,14.65
2023-09-15T21:41:39.376Z,14.62
2023-09-15T21:44:07.061Z,14.58
2023-09-15T21:46:35.016Z,14.49
2023-09-15T21:49:04.600Z,14.39
2023-09-15T21:51:32.329Z,14.54
2023-09-15T21:53:59.986Z,14.44
2023-09-15T21:56:29.304Z,14.40
2023-09-15T21:58:57.276Z,14.40
2023-09-15T22:01:33.420Z,14.42
2023-09-15T22:04:11.456Z,14.32
2023-09-15T22:06:40.738Z,14.45
2023-09-15T22:09:08.637Z,14.33
2023-09-15T22:11:36.898Z,14.38
2023-09-15T22:14:05.096Z,14.32
2023-09-15T22:16:35.548Z,14.27
2023-09-15T22:19:04.531Z,13.90
2023-09-15T22:21:33.652Z,13.80
2023-09-15T22:24:01.430Z,13.74
2023-09-15T22:26:29.567Z,13.65
2023-09-15T22:28:57.445Z,13.57
2023-09-15T22:31:25.083Z,13.68
2023-09-15T22:33:52.840Z,13.56
2023-09-15T22:36:21.335Z,13.52
2023-09-15T22:38:50.961Z,13.59
2023-09-15T22:41:19.121Z,13.53
2023-09-15T22:43:47.484Z,13.62
2023-09-15T22:46:16.733Z,13.52
2023-09-15T22:48:47.713Z,13.62
2023-09-15T22:51:15.798Z,13.53
2023-09-15T22:53:43.473Z,13.31
2023-09-15T22:56:12.508Z,13.19
2023-09-15T22:58:40.148Z,13.14
2023-09-15T23:01:07.833Z,13.18
2023-09-15T23:03:35.748Z,13.26
2023-09-15T23:06:03.701Z,13.11
2023-09-15T23:08:31.461Z,13.19
2023-09-15T23:11:05.052Z,13.31
2023-09-15T23:13:35.282Z,13.23
2023-09-15T23:16:08.714Z,13.20
2023-09-15T23:18:36.636Z,13.27
2023-09-15T23:21:04.412Z,13.22
2023-09-15T23:23:32.730Z,13.06
2023-09-15T23:26:00.438Z,13.14
2023-09-15T23:28:28.092Z,13.10
2023-09-15T23:30:57.337Z,13.10
2023-09-15T23:33:25.967Z,12.94
2023-09-15T23:35:53.589Z,12.95
2023-09-15T23:38:21.734Z,12.94
2023-09-15T23:40:49.327Z,13.00
2023-09-15T23:43:16.925Z,12.94
2023-09-15T23:45:44.555Z,12.95
2023-09-15T23:48:13.835Z,12.99
2023-09-15T23:50:42.329Z,12.97
2023-09-15T23:53:09.970Z,12.93
2023-09-15T23:55:37.787Z,12.75
2023-09-15T23:58:06.058Z,12.76
